sensor_id;sensor_type;location;lat;lon;timestamp;pressure;altitude;pressure_sealevel;temperature;humidity
64644;BME280;51056;50.330;7.914;2023-01-29T00:01:04;102075.97;;;0.56;76.70
64644;BME280;51056;50.330;7.914;2023-01-29T00:04:07;102078.50;;;0.53;76.30
64644;BME280;51056;50.330;7.914;2023-01-29T00:07:11;102087.84;;;0.46;76.43
64644;BME280;51056;50.330;7.914;2023-01-29T00:10:15;102093.88;;;0.50;76.36
64644;BME280;51056;50.330;7.914;2023-01-29T00:13:18;102099.03;;;0.50;76.24
64644;BME280;51056;50.330;7.914;2023-01-29T00:16:22;102094.69;;;0.46;76.52
64644;BME280;51056;50.330;7.914;2023-01-29T00:19:26;102094.69;;;0.47;76.82
64644;BME280;51056;50.330;7.914;2023-01-29T00:22:29;102100.75;;;0.50;76.77
64644;BME280;51056;50.330;7.914;2023-01-29T00:25:32;102087.94;;;0.53;76.80
64644;BME280;51056;50.330;7.914;2023-01-29T00:28:36;102088.78;;;0.52;76.63
64644;BME280;51056;50.330;7.914;2023-01-29T00:31:43;102093.06;;;0.51;76.67
64644;BME280;51056;50.330;7.914;2023-01-29T00:34:46;102082.78;;;0.53;76.70
64644;BME280;51056;50.330;7.914;2023-01-29T00:37:54;102083.59;;;0.50;76.47
64644;BME280;51056;50.330;7.914;2023-01-29T00:40:57;102082.56;;;0.37;75.38
64644;BME280;51056;50.330;7.914;2023-01-29T00:44:25;102078.84;;;0.17;75.22
64644;BME280;51056;50.330;7.914;2023-01-29T00:47:47;102065.03;;;0.12;74.44
64644;BME280;51056;50.330;7.914;2023-01-29T00:50:50;102064.25;;;0.19;75.13
64644;BME280;51056;50.330;7.914;2023-01-29T00:53:54;102056.50;;;0.16;74.71
64644;BME280;51056;50.330;7.914;2023-01-29T00:57:00;102051.25;;;0.07;74.41
64644;BME280;51056;50.330;7.914;2023-01-29T01:00:06;102041.78;;;0.04;73.60
64644;BME280;51056;50.330;7.914;2023-01-29T01:03:10;102042.59;;;0.02;73.94
64644;BME280;51056;50.330;7.914;2023-01-29T01:06:13;102038.06;;;-0.13;74.46
64644;BME280;51056;50.330;7.914;2023-01-29T01:09:18;102032.09;;;-0.12;74.70
64644;BME280;51056;50.330;7.914;2023-01-29T01:12:39;102018.34;;;-0.13;74.92
64644;BME280;51056;50.330;7.914;2023-01-29T01:15:43;102012.28;;;-0.18;75.19
64644;BME280;51056;50.330;7.914;2023-01-29T01:18:46;102022.47;;;-0.24;75.57
64644;BME280;51056;50.330;7.914;2023-01-29T01:21:49;102015.50;;;-0.30;75.57
64644;BME280;51056;50.330;7.914;2023-01-29T01:24:53;102009.44;;;-0.35;75.16
64644;BME280;51056;50.330;7.914;2023-01-29T01:27:57;102017.06;;;-0.41;75.85
64644;BME280;51056;50.330;7.914;2023-01-29T01:31:08;102012.72;;;-0.43;75.35
64644;BME280;51056;50.330;7.914;2023-01-29T01:34:11;102018.72;;;-0.44;75.14
64644;BME280;51056;50.330;7.914;2023-01-29T01:37:14;102014.31;;;-0.50;75.32
64644;BME280;51056;50.330;7.914;2023-01-29T01:40:19;102010.81;;;-0.55;75.19
64644;BME280;51056;50.330;7.914;2023-01-29T01:43:23;102003.84;;;-0.62;75.25
64644;BME280;51056;50.330;7.914;2023-01-29T01:46:31;102009.88;;;-0.60;75.60
64644;BME280;51056;50.330;7.914;2023-01-29T01:49:35;102009.88;;;-0.60;75.66
64644;BME280;51056;50.330;7.914;2023-01-29T01:52:42;102012.44;;;-0.60;75.43
64644;BME280;51056;50.330;7.914;2023-01-29T01:55:55;102010.69;;;-0.61;74.97
64644;BME280;51056;50.330;7.914;2023-01-29T01:59:00;102007.22;;;-0.65;75.29
64644;BME280;51056;50.330;7.914;2023-01-29T02:02:04;102001.22;;;-0.64;75.23
64644;BME280;51056;50.330;7.914;2023-01-29T02:05:30;102008.91;;;-0.65;75.03
64644;BME280;51056;50.330;7.914;2023-01-29T02:08:59;102020.06;;;-0.65;75.75
64644;BME280;51056;50.330;7.914;2023-01-29T02:12:22;102020.16;;;-0.60;75.90
64644;BME280;51056;50.330;7.914;2023-01-29T02:15:27;102032.94;;;-0.63;75.64
64644;BME280;51056;50.330;7.914;2023-01-29T02:18:32;102039.06;;;-0.57;75.58
64644;BME280;51056;50.330;7.914;2023-01-29T02:28:39;102047.69;;;-0.53;75.42
64644;BME280;51056;50.330;7.914;2023-01-29T02:32:07;102061.44;;;-0.48;75.25
64644;BME280;51056;50.330;7.914;2023-01-29T02:35:18;102054.75;;;-0.40;75.62
64644;BME280;51056;50.330;7.914;2023-01-29T02:38:35;102038.50;;;-0.39;75.84
64644;BME280;51056;50.330;7.914;2023-01-29T02:41:43;102040.06;;;-0.47;76.04
64644;BME280;51056;50.330;7.914;2023-01-29T02:45:14;102041.75;;;-0.49;76.53
64644;BME280;51056;50.330;7.914;2023-01-29T02:48:22;102041.84;;;-0.44;76.22
64644;BME280;51056;50.330;7.914;2023-01-29T02:55:14;102029.06;;;-0.38;75.79
64644;BME280;51056;50.330;7.914;2023-01-29T02:58:28;102017.88;;;-0.42;76.07
64644;BME280;51056;50.330;7.914;2023-01-29T03:01:49;102017.00;;;-0.44;76.68
64644;BME280;51056;50.330;7.914;2023-01-29T03:04:59;102005.88;;;-0.43;76.59
64644;BME280;51056;50.330;7.914;2023-01-29T03:08:09;102010.13;;;-0.45;76.12
64644;BME280;51056;50.330;7.914;2023-01-29T03:11:15;102008.34;;;-0.49;76.50
64644;BME280;51056;50.330;7.914;2023-01-29T03:14:40;102007.47;;;-0.50;77.38
64644;BME280;51056;50.330;7.914;2023-01-29T03:18:08;102009.88;;;-0.60;76.93
64644;BME280;51056;50.330;7.914;2023-01-29T03:21:23;102009.53;;;-0.79;77.29
64644;BME280;51056;50.330;7.914;2023-01-29T03:24:54;101998.59;;;-0.68;76.94
64644;BME280;51056;50.330;7.914;2023-01-29T03:28:19;102006.22;;;-0.73;76.90
64644;BME280;51056;50.330;7.914;2023-01-29T03:31:42;102004.34;;;-0.82;77.49
64644;BME280;51056;50.330;7.914;2023-01-29T03:35:07;102023.25;;;-0.77;77.11
64644;BME280;51056;50.330;7.914;2023-01-29T03:38:13;102019.88;;;-0.76;77.24
64644;BME280;51056;50.330;7.914;2023-01-29T03:44:34;102018.06;;;-0.81;77.10
64644;BME280;51056;50.330;7.914;2023-01-29T03:51:24;102005.91;;;-0.90;76.88
64644;BME280;51056;50.330;7.914;2023-01-29T03:54:55;102015.13;;;-1.00;77.43
64644;BME280;51056;50.330;7.914;2023-01-29T03:58:12;102025.44;;;-0.98;77.21
64644;BME280;51056;50.330;7.914;2023-01-29T04:01:25;102024.66;;;-0.96;76.95
64644;BME280;51056;50.330;7.914;2023-01-29T04:04:32;102017.75;;;-0.98;76.86
64644;BME280;51056;50.330;7.914;2023-01-29T04:07:39;102023.69;;;-0.99;76.86
64644;BME280;51056;50.330;7.914;2023-01-29T04:10:46;102020.25;;;-1.00;76.76
64644;BME280;51056;50.330;7.914;2023-01-29T04:13:51;102022.03;;;-0.97;76.85
64644;BME280;51056;50.330;7.914;2023-01-29T04:16:57;102028.00;;;-0.98;76.93
64644;BME280;51056;50.330;7.914;2023-01-29T04:20:23;102033.94;;;-1.01;76.57
64644;BME280;51056;50.330;7.914;2023-01-29T04:23:27;102040.72;;;-1.04;76.52
64644;BME280;51056;50.330;7.914;2023-01-29T04:26:45;102039.94;;;-1.02;76.78
64644;BME280;51056;50.330;7.914;2023-01-29T04:30:00;102036.53;;;-0.99;76.81
64644;BME280;51056;50.330;7.914;2023-01-29T04:33:37;102034.06;;;-0.95;76.72
64644;BME280;51056;50.330;7.914;2023-01-29T04:37:14;102021.06;;;-1.02;77.34
64644;BME280;51056;50.330;7.914;2023-01-29T04:40:47;102018.72;;;-0.91;77.24
64644;BME280;51056;50.330;7.914;2023-01-29T04:47:19;102010.22;;;-0.89;77.53
64644;BME280;51056;50.330;7.914;2023-01-29T04:54:23;101994.63;;;-0.98;78.35
64644;BME280;51056;50.330;7.914;2023-01-29T05:01:12;101977.53;;;-0.98;78.28
64644;BME280;51056;50.330;7.914;2023-01-29T05:04:18;101987.75;;;-0.99;78.63
64644;BME280;51056;50.330;7.914;2023-01-29T05:07:23;101981.75;;;-1.01;78.38
64644;BME280;51056;50.330;7.914;2023-01-29T05:10:27;101978.28;;;-1.03;78.31
64644;BME280;51056;50.330;7.914;2023-01-29T05:13:33;101991.09;;;-1.03;78.57
64644;BME280;51056;50.330;7.914;2023-01-29T05:16:42;102001.41;;;-1.02;78.56
64644;BME280;51056;50.330;7.914;2023-01-29T05:19:46;101992.06;;;-0.98;78.50
64644;BME280;51056;50.330;7.914;2023-01-29T05:22:49;102011.91;;;-0.89;78.31
64644;BME280;51056;50.330;7.914;2023-01-29T05:25:53;102005.25;;;-0.80;78.23
64644;BME280;51056;50.330;7.914;2023-01-29T05:28:58;102017.75;;;-0.97;78.52
64644;BME280;51056;50.330;7.914;2023-01-29T05:35:58;102012.78;;;-0.89;78.51
64644;BME280;51056;50.330;7.914;2023-01-29T05:39:01;102008.53;;;-0.87;78.33
64644;BME280;51056;50.330;7.914;2023-01-29T06:00:01;101996.81;;;-0.71;78.90
64644;BME280;51056;50.330;7.914;2023-01-29T06:03:07;102004.47;;;-0.74;78.46
64644;BME280;51056;50.330;7.914;2023-01-29T06:06:11;102006.19;;;-0.75;78.02
64644;BME280;51056;50.330;7.914;2023-01-29T06:09:14;102003.72;;;-0.70;78.09
64644;BME280;51056;50.330;7.914;2023-01-29T06:12:18;102003.78;;;-0.67;78.07
64644;BME280;51056;50.330;7.914;2023-01-29T06:15:21;101996.06;;;-0.65;78.12
64644;BME280;51056;50.330;7.914;2023-01-29T06:18:24;101990.13;;;-0.63;78.14
64644;BME280;51056;50.330;7.914;2023-01-29T06:21:30;101977.41;;;-0.55;77.75
64644;BME280;51056;50.330;7.914;2023-01-29T06:24:34;101961.13;;;-0.56;77.53
64644;BME280;51056;50.330;7.914;2023-01-29T06:27:37;101968.72;;;-0.63;78.21
64644;BME280;51056;50.330;7.914;2023-01-29T06:30:40;101967.03;;;-0.61;78.29
64644;BME280;51056;50.330;7.914;2023-01-29T06:33:44;101964.41;;;-0.64;78.17
64644;BME280;51056;50.330;7.914;2023-01-29T06:36:47;101961.94;;;-0.60;77.87
64644;BME280;51056;50.330;7.914;2023-01-29T06:39:51;101956.69;;;-0.64;78.13
64644;BME280;51056;50.330;7.914;2023-01-29T06:42:54;101964.41;;;-0.64;78.15
64644;BME280;51056;50.330;7.914;2023-01-29T06:46:00;101975.34;;;-0.76;78.59
64644;BME280;51056;50.330;7.914;2023-01-29T06:49:04;101978.91;;;-0.68;78.58
64644;BME280;51056;50.330;7.914;2023-01-29T06:52:07;101982.47;;;-0.60;78.32
64644;BME280;51056;50.330;7.914;2023-01-29T06:55:36;101992.75;;;-0.58;78.15
64644;BME280;51056;50.330;7.914;2023-01-29T06:58:40;102003.09;;;-0.57;78.03
64644;BME280;51056;50.330;7.914;2023-01-29T07:14:08;102020.28;;;-0.51;78.99
64644;BME280;51056;50.330;7.914;2023-01-29T07:17:11;102023.81;;;-0.48;78.81
64644;BME280;51056;50.330;7.914;2023-01-29T07:20:18;102013.47;;;-0.49;78.99
64644;BME280;51056;50.330;7.914;2023-01-29T07:23:22;102008.44;;;-0.43;79.08
64644;BME280;51056;50.330;7.914;2023-01-29T07:37:52;102004.22;;;-0.39;79.31
64644;BME280;51056;50.330;7.914;2023-01-29T07:40:56;102014.59;;;-0.33;79.04
64644;BME280;51056;50.330;7.914;2023-01-29T07:44:00;102012.94;;;-0.30;79.16
64644;BME280;51056;50.330;7.914;2023-01-29T07:47:40;102015.56;;;-0.28;78.88
64644;BME280;51056;50.330;7.914;2023-01-29T07:50:44;102011.22;;;-0.29;78.84
64644;BME280;51056;50.330;7.914;2023-01-29T07:53:47;102009.56;;;-0.27;78.25
64644;BME280;51056;50.330;7.914;2023-01-29T07:56:51;102013.16;;;-0.17;78.28
64644;BME280;51056;50.330;7.914;2023-01-29T07:59:55;102015.78;;;-0.13;78.15
64644;BME280;51056;50.330;7.914;2023-01-29T08:03:04;102022.63;;;-0.13;77.90
64644;BME280;51056;50.330;7.914;2023-01-29T08:06:09;102026.00;;;-0.17;78.02
64644;BME280;51056;50.330;7.914;2023-01-29T08:09:12;102030.19;;;-0.22;78.47
64644;BME280;51056;50.330;7.914;2023-01-29T08:12:15;102032.91;;;-0.13;78.19
64644;BME280;51056;50.330;7.914;2023-01-29T08:26:47;102026.03;;;-0.14;70.71
64644;BME280;51056;50.330;7.914;2023-01-29T08:29:53;102017.81;;;-0.47;69.49
64644;BME280;51056;50.330;7.914;2023-01-29T08:32:57;102030.44;;;-0.60;70.56
64644;BME280;51056;50.330;7.914;2023-01-29T08:36:03;102038.59;;;-0.34;70.23
64644;BME280;51056;50.330;7.914;2023-01-29T08:39:07;102037.66;;;-0.38;69.74
64644;BME280;51056;50.330;7.914;2023-01-29T08:42:11;102042.53;;;-0.53;69.37
64644;BME280;51056;50.330;7.914;2023-01-29T08:45:17;102033.88;;;-0.58;69.20
64644;BME280;51056;50.330;7.914;2023-01-29T08:48:26;102040.13;;;-0.44;70.24
64644;BME280;51056;50.330;7.914;2023-01-29T08:51:32;102036.81;;;-0.37;69.85
64644;BME280;51056;50.330;7.914;2023-01-29T08:54:38;102032.81;;;-0.69;70.30
64644;BME280;51056;50.330;7.914;2023-01-29T08:57:42;102024.72;;;-0.44;69.66
64644;BME280;51056;50.330;7.914;2023-01-29T09:00:46;102026.06;;;-0.64;70.09
64644;BME280;51056;50.330;7.914;2023-01-29T09:03:50;102031.75;;;-0.32;69.49
64644;BME280;51056;50.330;7.914;2023-01-29T09:06:54;102036.03;;;-0.33;68.62
64644;BME280;51056;50.330;7.914;2023-01-29T09:09:58;102047.38;;;-0.21;68.78
64644;BME280;51056;50.330;7.914;2023-01-29T09:13:03;102048.44;;;-0.07;68.95
64644;BME280;51056;50.330;7.914;2023-01-29T09:16:09;102045.16;;;0.00;68.35
64644;BME280;51056;50.330;7.914;2023-01-29T09:19:14;102048.53;;;-0.54;69.40
64644;BME280;51056;50.330;7.914;2023-01-29T09:22:18;102048.69;;;-0.43;69.76
64644;BME280;51056;50.330;7.914;2023-01-29T09:25:21;102049.97;;;-0.68;69.05
64644;BME280;51056;50.330;7.914;2023-01-29T09:28:25;102052.75;;;-0.56;69.52
64644;BME280;51056;50.330;7.914;2023-01-29T09:31:30;102059.56;;;-0.58;69.50
64644;BME280;51056;50.330;7.914;2023-01-29T09:34:40;102072.53;;;-0.52;69.21
64644;BME280;51056;50.330;7.914;2023-01-29T09:37:49;102079.09;;;-0.19;68.58
64644;BME280;51056;50.330;7.914;2023-01-29T09:45:07;102079.59;;;-0.39;68.74
64644;BME280;51056;50.330;7.914;2023-01-29T09:48:14;102072.81;;;-0.35;67.97
64644;BME280;51056;50.330;7.914;2023-01-29T09:51:42;102076.28;;;-0.33;67.85
64644;BME280;51056;50.330;7.914;2023-01-29T09:54:56;102070.84;;;0.00;68.00
64644;BME280;51056;50.330;7.914;2023-01-29T09:58:37;102077.19;;;-0.30;67.78
64644;BME280;51056;50.330;7.914;2023-01-29T10:12:03;102024.66;;;0.08;65.92
64644;BME280;51056;50.330;7.914;2023-01-29T10:19:11;102011.47;;;-0.14;66.29
64644;BME280;51056;50.330;7.914;2023-01-29T10:25:53;101999.06;;;0.15;64.74
64644;BME280;51056;50.330;7.914;2023-01-29T10:28:58;101994.25;;;-0.19;65.83
64644;BME280;51056;50.330;7.914;2023-01-29T10:32:03;101994.34;;;-0.15;66.25
64644;BME280;51056;50.330;7.914;2023-01-29T10:35:20;101988.44;;;-0.08;66.06
64644;BME280;51056;50.330;7.914;2023-01-29T10:41:47;101969.81;;;0.07;65.19
64644;BME280;51056;50.330;7.914;2023-01-29T10:45:22;101964.09;;;0.30;64.50
64644;BME280;51056;50.330;7.914;2023-01-29T11:01:25;101932.94;;;0.77;63.99
64644;BME280;51056;50.330;7.914;2023-01-29T11:04:29;101931.41;;;0.99;64.47
64644;BME280;51056;50.330;7.914;2023-01-29T11:07:33;101931.09;;;0.69;63.59
64644;BME280;51056;50.330;7.914;2023-01-29T11:14:11;101929.47;;;0.75;63.70
64644;BME280;51056;50.330;7.914;2023-01-29T11:17:24;101925.38;;;0.95;63.34
64644;BME280;51056;50.330;7.914;2023-01-29T11:20:30;101928.78;;;0.92;62.62
64644;BME280;51056;50.330;7.914;2023-01-29T11:23:34;101920.88;;;0.76;63.12
64644;BME280;51056;50.330;7.914;2023-01-29T11:26:44;101914.06;;;0.78;64.08
64644;BME280;51056;50.330;7.914;2023-01-29T11:29:48;101910.38;;;0.57;64.33
64644;BME280;51056;50.330;7.914;2023-01-29T11:33:27;101908.31;;;0.26;65.61
64644;BME280;51056;50.330;7.914;2023-01-29T11:36:36;101908.72;;;0.62;65.12
64644;BME280;51056;50.330;7.914;2023-01-29T11:39:43;101909.75;;;0.05;65.55
64644;BME280;51056;50.330;7.914;2023-01-29T11:42:50;101900.72;;;0.36;64.89
64644;BME280;51056;50.330;7.914;2023-01-29T11:46:03;101887.94;;;0.42;64.52
64644;BME280;51056;50.330;7.914;2023-01-29T11:49:27;101883.59;;;0.41;64.27
64644;BME280;51056;50.330;7.914;2023-01-29T11:52:38;101875.78;;;0.29;64.44
64644;BME280;51056;50.330;7.914;2023-01-29T11:55:48;101872.75;;;0.68;64.50
64644;BME280;51056;50.330;7.914;2023-01-29T11:59:00;101870.22;;;0.73;63.50
64644;BME280;51056;50.330;7.914;2023-01-29T12:02:36;101864.34;;;0.86;63.45
64644;BME280;51056;50.330;7.914;2023-01-29T12:05:53;101848.28;;;1.15;64.26
64644;BME280;51056;50.330;7.914;2023-01-29T12:09:00;101851.72;;;1.17;63.09
64644;BME280;51056;50.330;7.914;2023-01-29T12:12:38;101838.75;;;1.03;62.18
64644;BME280;51056;50.330;7.914;2023-01-29T12:15:43;101836.97;;;0.96;62.05
64644;BME280;51056;50.330;7.914;2023-01-29T12:18:55;101833.94;;;0.47;63.01
64644;BME280;51056;50.330;7.914;2023-01-29T12:22:20;101830.47;;;0.42;64.23
64644;BME280;51056;50.330;7.914;2023-01-29T12:25:39;101814.50;;;0.77;63.79
64644;BME280;51056;50.330;7.914;2023-01-29T12:32:17;101793.44;;;1.36;62.91
64644;BME280;51056;50.330;7.914;2023-01-29T12:35:32;101791.66;;;1.23;62.18
64644;BME280;51056;50.330;7.914;2023-01-29T12:38:38;101783.66;;;0.86;62.44
64644;BME280;51056;50.330;7.914;2023-01-29T12:41:58;101787.34;;;1.19;62.06
64644;BME280;51056;50.330;7.914;2023-01-29T12:45:07;101783.94;;;1.26;62.72
64644;BME280;51056;50.330;7.914;2023-01-29T12:48:15;101780.47;;;1.21;62.02
64644;BME280;51056;50.330;7.914;2023-01-29T12:51:25;101784.72;;;1.12;62.30
64644;BME280;51056;50.330;7.914;2023-01-29T12:54:59;101777.47;;;0.65;63.19
64644;BME280;51056;50.330;7.914;2023-01-29T12:58:13;101752.44;;;0.46;64.05
64644;BME280;51056;50.330;7.914;2023-01-29T13:01:29;101760.16;;;0.47;64.55
64644;BME280;51056;50.330;7.914;2023-01-29T13:04:40;101753.41;;;0.60;64.59
64644;BME280;51056;50.330;7.914;2023-01-29T13:07:47;101746.63;;;0.68;64.75
64644;BME280;51056;50.330;7.914;2023-01-29T13:10:54;101735.59;;;0.88;64.25
64644;BME280;51056;50.330;7.914;2023-01-29T13:14:24;101738.88;;;0.65;64.11
64644;BME280;51056;50.330;7.914;2023-01-29T13:17:55;101740.59;;;0.69;64.02
64644;BME280;51056;50.330;7.914;2023-01-29T13:21:00;101739.03;;;0.87;63.11
64644;BME280;51056;50.330;7.914;2023-01-29T13:24:19;101734.56;;;0.63;63.62
64644;BME280;51056;50.330;7.914;2023-01-29T13:27:26;101744.88;;;0.66;64.16
64644;BME280;51056;50.330;7.914;2023-01-29T13:30:32;101738.03;;;0.69;63.91
64644;BME280;51056;50.330;7.914;2023-01-29T13:33:40;101740.69;;;0.79;64.04
64644;BME280;51056;50.330;7.914;2023-01-29T13:36:47;101735.56;;;0.82;63.42
64644;BME280;51056;50.330;7.914;2023-01-29T13:39:54;101734.78;;;0.95;64.09
64644;BME280;51056;50.330;7.914;2023-01-29T13:43:00;101726.31;;;1.14;63.37
64644;BME280;51056;50.330;7.914;2023-01-29T13:46:09;101734.03;;;1.11;63.84
64644;BME280;51056;50.330;7.914;2023-01-29T13:52:44;101730.63;;;1.17;63.27
64644;BME280;51056;50.330;7.914;2023-01-29T13:55:50;101728.13;;;1.26;62.81
64644;BME280;51056;50.330;7.914;2023-01-29T13:58:56;101723.78;;;1.21;63.35
64644;BME280;51056;50.330;7.914;2023-01-29T14:02:02;101710.88;;;1.16;63.85
64644;BME280;51056;50.330;7.914;2023-01-29T14:05:41;101704.91;;;1.22;64.34
64644;BME280;51056;50.330;7.914;2023-01-29T14:08:46;101704.81;;;1.05;64.44
64644;BME280;51056;50.330;7.914;2023-01-29T14:11:50;101692.84;;;1.13;64.08
64644;BME280;51056;50.330;7.914;2023-01-29T14:17:59;101688.56;;;1.12;65.40
64644;BME280;51056;50.330;7.914;2023-01-29T14:21:24;101677.38;;;1.14;65.85
64644;BME280;51056;50.330;7.914;2023-01-29T14:24:32;101671.31;;;1.05;66.95
64644;BME280;51056;50.330;7.914;2023-01-29T14:27:36;101671.25;;;0.96;65.56
64644;BME280;51056;50.330;7.914;2023-01-29T14:30:39;101673.91;;;1.06;65.91
64644;BME280;51056;50.330;7.914;2023-01-29T14:33:48;101673.94;;;1.14;66.11
64644;BME280;51056;50.330;7.914;2023-01-29T14:37:29;101667.94;;;1.13;66.50
64644;BME280;51056;50.330;7.914;2023-01-29T14:40:26;101666.25;;;1.15;66.76
64644;BME280;51056;50.330;7.914;2023-01-29T14:43:35;101664.50;;;1.13;67.39
64644;BME280;51056;50.330;7.914;2023-01-29T14:46:43;101663.59;;;1.08;67.91
64644;BME280;51056;50.330;7.914;2023-01-29T14:49:53;101663.53;;;0.91;65.36
64644;BME280;51056;50.330;7.914;2023-01-29T14:53:02;101658.34;;;0.83;67.90
64644;BME280;51056;50.330;7.914;2023-01-29T14:56:16;101642.97;;;1.00;68.01
64644;BME280;51056;50.330;7.914;2023-01-29T14:59:36;101637.84;;;1.06;68.17
64644;BME280;51056;50.330;7.914;2023-01-29T15:02:48;101639.56;;;1.03;68.62
64644;BME280;51056;50.330;7.914;2023-01-29T15:05:55;101635.25;;;1.00;68.41
64644;BME280;51056;50.330;7.914;2023-01-29T15:09:09;101622.25;;;0.79;69.63
64644;BME280;51056;50.330;7.914;2023-01-29T15:12:27;101623.97;;;0.74;68.13
64644;BME280;51056;50.330;7.914;2023-01-29T15:18:45;101619.72;;;0.83;69.10
64644;BME280;51056;50.330;7.914;2023-01-29T15:25:50;101621.47;;;0.93;68.36
64644;BME280;51056;50.330;7.914;2023-01-29T15:28:59;101612.88;;;0.91;68.48
64644;BME280;51056;50.330;7.914;2023-01-29T15:32:03;101605.13;;;0.84;69.25
64644;BME280;51056;50.330;7.914;2023-01-29T15:38:21;101605.03;;;0.68;69.01
64644;BME280;51056;50.330;7.914;2023-01-29T15:41:36;101603.38;;;0.80;68.98
64644;BME280;51056;50.330;7.914;2023-01-29T15:44:45;101599.06;;;0.76;70.10
64644;BME280;51056;50.330;7.914;2023-01-29T15:47:49;101604.13;;;0.63;70.12
64644;BME280;51056;50.330;7.914;2023-01-29T15:50:55;101598.97;;;0.59;71.21
64644;BME280;51056;50.330;7.914;2023-01-29T15:54:15;101594.63;;;0.50;70.99
64644;BME280;51056;50.330;7.914;2023-01-29T15:58:01;101606.53;;;0.34;72.45
64644;BME280;51056;50.330;7.914;2023-01-29T16:01:06;101614.28;;;0.37;72.58
64644;BME280;51056;50.330;7.914;2023-01-29T16:04:17;101627.16;;;0.39;72.34
64644;BME280;51056;50.330;7.914;2023-01-29T16:07:22;101629.66;;;0.31;72.96
64644;BME280;51056;50.330;7.914;2023-01-29T16:10:29;101628.81;;;0.31;72.86
64644;BME280;51056;50.330;7.914;2023-01-29T16:13:35;101635.66;;;0.26;72.82
64644;BME280;51056;50.330;7.914;2023-01-29T16:16:40;101639.06;;;0.26;72.91
64644;BME280;51056;50.330;7.914;2023-01-29T16:19:57;101643.31;;;0.19;73.10
64644;BME280;51056;50.330;7.914;2023-01-29T16:23:03;101653.50;;;0.12;73.81
64644;BME280;51056;50.330;7.914;2023-01-29T16:26:13;101652.69;;;0.14;74.13
64644;BME280;51056;50.330;7.914;2023-01-29T16:29:22;101653.47;;;0.04;73.92
64644;BME280;51056;50.330;7.914;2023-01-29T16:32:28;101659.38;;;-0.06;74.58
64644;BME280;51056;50.330;7.914;2023-01-29T16:35:32;101657.59;;;-0.10;74.47
64644;BME280;51056;50.330;7.914;2023-01-29T16:38:38;101653.31;;;-0.10;74.85
64644;BME280;51056;50.330;7.914;2023-01-29T16:42:06;101660.88;;;-0.24;75.04
64644;BME280;51056;50.330;7.914;2023-01-29T16:45:27;101656.53;;;-0.29;75.77
64644;BME280;51056;50.330;7.914;2023-01-29T16:48:36;101663.38;;;-0.33;75.73
64644;BME280;51056;50.330;7.914;2023-01-29T16:51:41;101662.50;;;-0.35;75.69
64644;BME280;51056;50.330;7.914;2023-01-29T16:54:45;101671.00;;;-0.39;75.50
64644;BME280;51056;50.330;7.914;2023-01-29T17:01:33;101670.09;;;-0.44;75.68
64644;BME280;51056;50.330;7.914;2023-01-29T17:15:02;101680.13;;;-0.65;76.08
64644;BME280;51056;50.330;7.914;2023-01-29T17:18:23;101688.66;;;-0.68;76.58
64644;BME280;51056;50.330;7.914;2023-01-29T17:21:27;101687.84;;;-0.65;76.40
64644;BME280;51056;50.330;7.914;2023-01-29T17:24:33;101691.25;;;-0.65;76.26
64644;BME280;51056;50.330;7.914;2023-01-29T17:27:40;101683.47;;;-0.71;76.08
64644;BME280;51056;50.330;7.914;2023-01-29T17:30:45;101679.97;;;-0.79;76.26
64644;BME280;51056;50.330;7.914;2023-01-29T17:33:49;101677.34;;;-0.81;76.76
64644;BME280;51056;50.330;7.914;2023-01-29T17:36:54;101677.28;;;-0.88;76.79
64644;BME280;51056;50.330;7.914;2023-01-29T17:39:59;101672.06;;;-0.93;77.00
64644;BME280;51056;50.330;7.914;2023-01-29T17:43:02;101660.06;;;-0.96;76.93
64644;BME280;51056;50.330;7.914;2023-01-29T17:46:12;101654.97;;;-0.89;76.81
64644;BME280;51056;50.330;7.914;2023-01-29T17:52:25;101643.84;;;-0.91;76.80
64644;BME280;51056;50.330;7.914;2023-01-29T17:55:29;101641.25;;;-0.93;77.02
64644;BME280;51056;50.330;7.914;2023-01-29T17:58:35;101638.75;;;-0.88;76.71
64644;BME280;51056;50.330;7.914;2023-01-29T18:01:41;101642.09;;;-0.94;76.83
64644;BME280;51056;50.330;7.914;2023-01-29T18:04:45;101628.31;;;-1.01;76.70
64644;BME280;51056;50.330;7.914;2023-01-29T18:07:54;101630.91;;;-0.99;76.86
64644;BME280;51056;50.330;7.914;2023-01-29T18:11:00;101620.63;;;-1.01;77.04
64644;BME280;51056;50.330;7.914;2023-01-29T18:14:04;101630.94;;;-0.96;77.31
64644;BME280;51056;50.330;7.914;2023-01-29T18:17:11;101627.47;;;-1.00;77.24
64644;BME280;51056;50.330;7.914;2023-01-29T18:20:21;101631.69;;;-1.05;76.82
64644;BME280;51056;50.330;7.914;2023-01-29T18:23:26;101633.34;;;-1.10;77.16
64644;BME280;51056;50.330;7.914;2023-01-29T18:26:31;101627.34;;;-1.09;77.21
64644;BME280;51056;50.330;7.914;2023-01-29T18:29:34;101619.66;;;-1.09;77.64
64644;BME280;51056;50.330;7.914;2023-01-29T18:33:03;101618.69;;;-1.17;77.86
64644;BME280;51056;50.330;7.914;2023-01-29T18:36:07;101623.06;;;-1.11;78.00
64644;BME280;51056;50.330;7.914;2023-01-29T18:39:14;101620.41;;;-1.16;78.13
64644;BME280;51056;50.330;7.914;2023-01-29T18:42:18;101617.88;;;-1.13;77.72
64644;BME280;51056;50.330;7.914;2023-01-29T18:45:21;101617.06;;;-1.10;77.66
64644;BME280;51056;50.330;7.914;2023-01-29T18:48:25;101623.03;;;-1.13;77.89
64644;BME280;51056;50.330;7.914;2023-01-29T18:51:28;101610.22;;;-1.11;77.90
64644;BME280;51056;50.330;7.914;2023-01-29T18:54:33;101609.38;;;-1.10;78.06
64644;BME280;51056;50.330;7.914;2023-01-29T18:57:38;101600.88;;;-1.06;78.25
64644;BME280;51056;50.330;7.914;2023-01-29T19:00:43;101588.88;;;-1.07;78.33
64644;BME280;51056;50.330;7.914;2023-01-29T19:03:46;101583.81;;;-1.00;78.22
64644;BME280;51056;50.330;7.914;2023-01-29T19:06:50;101589.91;;;-0.95;78.35
64644;BME280;51056;50.330;7.914;2023-01-29T19:09:53;101583.91;;;-0.94;78.09
64644;BME280;51056;50.330;7.914;2023-01-29T19:12:57;101574.50;;;-0.93;78.70
64644;BME280;51056;50.330;7.914;2023-01-29T19:16:01;101569.31;;;-0.96;78.56
64644;BME280;51056;50.330;7.914;2023-01-29T19:23:24;101591.66;;;-0.92;79.19
64644;BME280;51056;50.330;7.914;2023-01-29T19:26:53;101592.56;;;-0.84;78.73